Main page


Airports :

Dundee, Scotland

Dundee Airport

latitude: 56-27N, longitude: 003-01W, elevation: 4 m

Current weather observation

The report was made 25 minutes ago, at 17:20 UTC
Wind 4 kt from the West/Northwest
Temperature 8°C
Humidity 46%
Pressure 1031 hPa
Visibility 10 km or more
no clouds below 1500 m and no cumulonimbus

METAR: EGPN 201720Z 30004KT CAVOK 08/M03 Q1031

Time: 17:45 (17:45 UTC)


The report was made 47 minutes ago, at 16:58 UTC
Forecast valid from 20 at 18 UTC to 20 at 21 UTC
Wind 3 kt from variable directions
Visibility 10 km or more
Few clouds at a height of 4000 ft

TAF: EGPN 201658Z 2018/2021 VRB03KT 9999 FEW040

Weather observations and forecasts of more than 4000 airports (METAR and TAF reports).

The available stations are represented by yellow and red dots on the map.

Hover mouse over dot to see the name of the station.

Then click to see weather observations and forecasts.

To change the map : click on the green buttons with a black cross to zoom in, on the green button with a dash to zoom out, or on the green arrows for adjacent maps.